sensor_id;sensor_type;location;lat;lon;timestamp;pressure;altitude;pressure_sealevel;temperature;humidity
24390;BME280;12510;56.468;-3.004;2023-05-23T00:02:03;101895.16;;;15.33;100.00
24390;BME280;12510;56.468;-3.004;2023-05-23T00:04:34;101900.88;;;15.38;100.00
24390;BME280;12510;56.468;-3.004;2023-05-23T00:07:03;101896.84;;;15.44;100.00
24390;BME280;12510;56.468;-3.004;2023-05-23T00:09:30;101895.16;;;15.33;100.00
24390;BME280;12510;56.468;-3.004;2023-05-23T00:11:56;101894.63;;;15.39;100.00
24390;BME280;12510;56.468;-3.004;2023-05-23T00:14:23;101891.97;;;15.39;100.00
24390;BME280;12510;56.468;-3.004;2023-05-23T00:16:49;101890.28;;;15.48;100.00
24390;BME280;12510;56.468;-3.004;2023-05-23T00:19:16;101885.41;;;15.44;100.00
24390;BME280;12510;56.468;-3.004;2023-05-23T00:21:45;101886.66;;;15.49;100.00
24390;BME280;12510;56.468;-3.004;2023-05-23T00:24:15;101885.53;;;15.42;100.00
24390;BME280;12510;56.468;-3.004;2023-05-23T00:26:44;101881.63;;;15.56;100.00
24390;BME280;12510;56.468;-3.004;2023-05-23T00:29:11;101884.28;;;15.46;100.00
24390;BME280;12510;56.468;-3.004;2023-05-23T00:31:44;101888.44;;;15.39;100.00
24390;BME280;12510;56.468;-3.004;2023-05-23T00:34:14;101893.50;;;15.42;100.00
24390;BME280;12510;56.468;-3.004;2023-05-23T00:36:43;101889.03;;;15.72;100.00
24390;BME280;12510;56.468;-3.004;2023-05-23T00:39:13;101888.47;;;15.49;100.00
24390;BME280;12510;56.468;-3.004;2023-05-23T00:41:46;101882.75;;;15.63;100.00
24390;BME280;12510;56.468;-3.004;2023-05-23T00:44:12;101876.75;;;15.61;100.00
24390;BME280;12510;56.468;-3.004;2023-05-23T00:46:40;101878.00;;;15.67;100.00
24390;BME280;12510;56.468;-3.004;2023-05-23T00:49:08;101876.59;;;15.53;100.00
24390;BME280;12510;56.468;-3.004;2023-05-23T00:51:35;101874.09;;;15.61;100.00
24390;BME280;12510;56.468;-3.004;2023-05-23T00:54:03;101875.78;;;15.62;100.00
24390;BME280;12510;56.468;-3.004;2023-05-23T00:56:30;101871.28;;;15.63;100.00
24390;BME280;12510;56.468;-3.004;2023-05-23T00:58:58;101875.06;;;15.70;100.00
24390;BME280;12510;56.468;-3.004;2023-05-23T01:01:25;101882.63;;;15.65;100.00
24390;BME280;12510;56.468;-3.004;2023-05-23T01:03:52;101878.00;;;15.67;100.00
24390;BME280;12510;56.468;-3.004;2023-05-23T01:06:19;101883.75;;;15.62;100.00
24390;BME280;12510;56.468;-3.004;2023-05-23T01:08:45;101883.91;;;15.80;100.00
24390;BME280;12510;56.468;-3.004;2023-05-23T01:11:45;101883.91;;;16.00;100.00
24390;BME280;12510;56.468;-3.004;2023-05-23T01:14:25;101875.91;;;16.09;100.00
24390;BME280;12510;56.468;-3.004;2023-05-23T01:17:00;101881.34;;;15.79;100.00
24390;BME280;12510;56.468;-3.004;2023-05-23T01:22:28;101886.72;;;15.98;100.00
24390;BME280;12510;56.468;-3.004;2023-05-23T01:28:06;101871.88;;;15.86;100.00
24390;BME280;12510;56.468;-3.004;2023-05-23T01:30:38;101867.81;;;15.82;100.00
24390;BME280;12510;56.468;-3.004;2023-05-23T01:33:07;101865.16;;;15.72;100.00
24390;BME280;12510;56.468;-3.004;2023-05-23T01:35:35;101865.59;;;15.87;100.00
24390;BME280;12510;56.468;-3.004;2023-05-23T01:38:02;101856.78;;;15.96;100.00
24390;BME280;12510;56.468;-3.004;2023-05-23T01:40:28;101867.28;;;15.88;100.00
24390;BME280;12510;56.468;-3.004;2023-05-23T01:42:55;101867.97;;;15.90;100.00
24390;BME280;12510;56.468;-3.004;2023-05-23T01:45:27;101864.63;;;15.88;100.00
24390;BME280;12510;56.468;-3.004;2023-05-23T01:47:55;101867.66;;;15.73;100.00
24390;BME280;12510;56.468;-3.004;2023-05-23T01:50:23;101871.03;;;15.95;100.00
24390;BME280;12510;56.468;-3.004;2023-05-23T01:52:50;101858.88;;;15.92;100.00
24390;BME280;12510;56.468;-3.004;2023-05-23T01:55:19;101863.78;;;15.87;100.00
24390;BME280;12510;56.468;-3.004;2023-05-23T01:57:54;101869.09;;;15.87;100.00
24390;BME280;12510;56.468;-3.004;2023-05-23T02:00:21;101867.38;;;15.76;100.00
24390;BME280;12510;56.468;-3.004;2023-05-23T02:02:48;101863.34;;;15.53;100.00
24390;BME280;12510;56.468;-3.004;2023-05-23T02:05:16;101863.06;;;15.75;100.00
24390;BME280;12510;56.468;-3.004;2023-05-23T02:07:42;101872.97;;;15.73;100.00
24390;BME280;12510;56.468;-3.004;2023-05-23T02:10:09;101885.25;;;15.55;100.00
24390;BME280;12510;56.468;-3.004;2023-05-23T02:12:36;101884.72;;;15.61;100.00
24390;BME280;12510;56.468;-3.004;2023-05-23T02:15:02;101888.91;;;15.64;100.00
24390;BME280;12510;56.468;-3.004;2023-05-23T02:17:30;101881.47;;;15.38;100.00
24390;BME280;12510;56.468;-3.004;2023-05-23T02:19:56;101872.81;;;15.46;100.00
24390;BME280;12510;56.468;-3.004;2023-05-23T02:22:23;101867.19;;;15.29;100.00
24390;BME280;12510;56.468;-3.004;2023-05-23T02:24:51;101871.94;;;15.16;100.00
24390;BME280;12510;56.468;-3.004;2023-05-23T02:27:17;101870.66;;;15.00;100.00
24390;BME280;12510;56.468;-3.004;2023-05-23T02:29:44;101875.06;;;14.90;100.00
24390;BME280;12510;56.468;-3.004;2023-05-23T02:32:11;101879.22;;;14.83;100.00
24390;BME280;12510;56.468;-3.004;2023-05-23T02:34:38;101874.59;;;14.75;100.00
24390;BME280;12510;56.468;-3.004;2023-05-23T02:37:05;101869.03;;;14.57;100.00
24390;BME280;12510;56.468;-3.004;2023-05-23T02:39:34;101870.69;;;14.48;100.00
24390;BME280;12510;56.468;-3.004;2023-05-23T02:42:01;101865.56;;;14.56;100.00
24390;BME280;12510;56.468;-3.004;2023-05-23T02:44:28;101863.84;;;14.24;100.00
24390;BME280;12510;56.468;-3.004;2023-05-23T02:46:54;101860.94;;;14.06;100.00
24390;BME280;12510;56.468;-3.004;2023-05-23T02:49:21;101859.25;;;14.05;100.00
24390;BME280;12510;56.468;-3.004;2023-05-23T02:51:47;101856.84;;;14.02;100.00
24390;BME280;12510;56.468;-3.004;2023-05-23T02:54:14;101857.00;;;14.01;100.00
24390;BME280;12510;56.468;-3.004;2023-05-23T02:56:40;101849.72;;;13.93;100.00
24390;BME280;12510;56.468;-3.004;2023-05-23T02:59:07;101849.56;;;13.73;100.00
24390;BME280;12510;56.468;-3.004;2023-05-23T03:01:33;101857.16;;;13.67;100.00
24390;BME280;12510;56.468;-3.004;2023-05-23T03:04:00;101854.38;;;13.68;100.00
24390;BME280;12510;56.468;-3.004;2023-05-23T03:06:26;101856.81;;;13.60;100.00
24390;BME280;12510;56.468;-3.004;2023-05-23T03:08:53;101860.94;;;13.53;100.00
24390;BME280;12510;56.468;-3.004;2023-05-23T03:11:21;101865.59;;;13.61;100.00
24390;BME280;12510;56.468;-3.004;2023-05-23T03:13:47;101865.09;;;13.67;100.00
24390;BME280;12510;56.468;-3.004;2023-05-23T03:16:14;101856.75;;;13.71;100.00
24390;BME280;12510;56.468;-3.004;2023-05-23T03:18:41;101862.16;;;13.81;100.00
24390;BME280;12510;56.468;-3.004;2023-05-23T03:21:07;101858.13;;;13.66;100.00
24390;BME280;12510;56.468;-3.004;2023-05-23T03:23:34;101869.22;;;13.60;100.00
24390;BME280;12510;56.468;-3.004;2023-05-23T03:26:02;101873.72;;;13.36;100.00
24390;BME280;12510;56.468;-3.004;2023-05-23T03:28:31;101872.50;;;13.40;100.00
24390;BME280;12510;56.468;-3.004;2023-05-23T03:30:58;101881.88;;;13.45;100.00
24390;BME280;12510;56.468;-3.004;2023-05-23T03:33:24;101873.94;;;13.45;100.00
24390;BME280;12510;56.468;-3.004;2023-05-23T03:35:52;101871.09;;;13.14;100.00
24390;BME280;12510;56.468;-3.004;2023-05-23T03:38:19;101866.03;;;13.22;100.00
24390;BME280;12510;56.468;-3.004;2023-05-23T03:40:46;101870.66;;;12.97;100.00
24390;BME280;12510;56.468;-3.004;2023-05-23T03:43:12;101865.59;;;13.05;100.00
24390;BME280;12510;56.468;-3.004;2023-05-23T03:45:41;101861.34;;;13.25;100.00
24390;BME280;12510;56.468;-3.004;2023-05-23T03:48:12;101858.13;;;13.11;100.00
24390;BME280;12510;56.468;-3.004;2023-05-23T03:50:40;101857.34;;;13.31;100.00
24390;BME280;12510;56.468;-3.004;2023-05-23T03:53:07;101853.28;;;13.27;100.00
24390;BME280;12510;56.468;-3.004;2023-05-23T03:55:34;101855.22;;;13.14;100.00
24390;BME280;12510;56.468;-3.004;2023-05-23T03:58:01;101853.31;;;13.04;100.00
24390;BME280;12510;56.468;-3.004;2023-05-23T04:00:28;101850.44;;;12.96;100.00
24390;BME280;12510;56.468;-3.004;2023-05-23T04:02:55;101854.31;;;12.81;100.00
24390;BME280;12510;56.468;-3.004;2023-05-23T04:05:23;101850.44;;;12.96;100.00
24390;BME280;12510;56.468;-3.004;2023-05-23T04:07:50;101857.16;;;13.00;100.00
24390;BME280;12510;56.468;-3.004;2023-05-23T04:10:18;101848.53;;;12.98;100.00
24390;BME280;12510;56.468;-3.004;2023-05-23T04:12:45;101853.44;;;13.03;100.00
24390;BME280;12510;56.468;-3.004;2023-05-23T04:15:15;101852.72;;;13.23;100.00
24390;BME280;12510;56.468;-3.004;2023-05-23T04:17:53;101844.03;;;13.33;100.00
24390;BME280;12510;56.468;-3.004;2023-05-23T04:20:20;101846.84;;;13.52;100.00
24390;BME280;12510;56.468;-3.004;2023-05-23T04:22:47;101853.84;;;13.53;100.00
24390;BME280;12510;56.468;-3.004;2023-05-23T04:25:13;101858.47;;;13.72;100.00
24390;BME280;12510;56.468;-3.004;2023-05-23T04:27:47;101847.56;;;14.08;100.00
24390;BME280;12510;56.468;-3.004;2023-05-23T04:30:14;101840.22;;;14.42;100.00
24390;BME280;12510;56.468;-3.004;2023-05-23T04:32:43;101840.97;;;14.75;100.00
24390;BME280;12510;56.468;-3.004;2023-05-23T04:35:10;101842.00;;;14.94;100.00
24390;BME280;12510;56.468;-3.004;2023-05-23T04:37:40;101843.09;;;14.82;100.00
24390;BME280;12510;56.468;-3.004;2023-05-23T04:40:08;101849.50;;;14.89;100.00
24390;BME280;12510;56.468;-3.004;2023-05-23T04:42:54;101846.13;;;15.37;100.00
24390;BME280;12510;56.468;-3.004;2023-05-23T04:45:37;101851.72;;;15.44;100.00
24390;BME280;12510;56.468;-3.004;2023-05-23T04:48:23;101845.72;;;15.52;100.00
24390;BME280;12510;56.468;-3.004;2023-05-23T04:50:50;101847.25;;;15.45;100.00
24390;BME280;12510;56.468;-3.004;2023-05-23T04:53:18;101843.06;;;15.62;100.00
24390;BME280;12510;56.468;-3.004;2023-05-23T04:55:45;101837.47;;;15.55;100.00
24390;BME280;12510;56.468;-3.004;2023-05-23T04:58:14;101833.84;;;15.75;100.00
24390;BME280;12510;56.468;-3.004;2023-05-23T05:00:41;101834.25;;;15.71;100.00
24390;BME280;12510;56.468;-3.004;2023-05-23T05:03:08;101827.41;;;16.07;100.00
24390;BME280;12510;56.468;-3.004;2023-05-23T05:05:38;101840.22;;;16.32;100.00
24390;BME280;12510;56.468;-3.004;2023-05-23T05:08:04;101829.22;;;16.45;100.00
24390;BME280;12510;56.468;-3.004;2023-05-23T05:10:31;101837.69;;;16.30;100.00
24390;BME280;12510;56.468;-3.004;2023-05-23T05:12:58;101833.53;;;16.55;100.00
24390;BME280;12510;56.468;-3.004;2023-05-23T05:15:30;101817.78;;;16.44;100.00
24390;BME280;12510;56.468;-3.004;2023-05-23T05:17:58;101818.84;;;16.14;100.00
24390;BME280;12510;56.468;-3.004;2023-05-23T05:20:24;101830.97;;;16.26;100.00
24390;BME280;12510;56.468;-3.004;2023-05-23T05:22:55;101819.22;;;16.29;100.00
24390;BME280;12510;56.468;-3.004;2023-05-23T05:25:23;101829.31;;;16.63;100.00
24390;BME280;12510;56.468;-3.004;2023-05-23T05:27:49;101819.38;;;16.92;100.00
24390;BME280;12510;56.468;-3.004;2023-05-23T05:30:19;101812.09;;;16.85;100.00
24390;BME280;12510;56.468;-3.004;2023-05-23T05:32:50;101808.31;;;16.87;100.00
24390;BME280;12510;56.468;-3.004;2023-05-23T05:35:17;101803.34;;;17.02;100.00
24390;BME280;12510;56.468;-3.004;2023-05-23T05:37:45;101819.41;;;17.47;100.00
24390;BME280;12510;56.468;-3.004;2023-05-23T05:40:12;101808.47;;;17.32;100.00
24390;BME280;12510;56.468;-3.004;2023-05-23T05:42:41;101803.75;;;17.25;100.00
24390;BME280;12510;56.468;-3.004;2023-05-23T05:45:09;101808.53;;;17.40;100.00
24390;BME280;12510;56.468;-3.004;2023-05-23T05:47:38;101801.31;;;16.86;100.00
24390;BME280;12510;56.468;-3.004;2023-05-23T05:50:05;101799.63;;;17.13;100.00
24390;BME280;12510;56.468;-3.004;2023-05-23T05:52:34;101792.66;;;17.12;100.00
24390;BME280;12510;56.468;-3.004;2023-05-23T05:55:09;101796.06;;;17.40;100.00
24390;BME280;12510;56.468;-3.004;2023-05-23T05:57:41;101780.03;;;16.96;100.00
24390;BME280;12510;56.468;-3.004;2023-05-23T06:00:11;101796.53;;;17.54;100.00
24390;BME280;12510;56.468;-3.004;2023-05-23T06:02:46;101786.56;;;17.82;100.00
24390;BME280;12510;56.468;-3.004;2023-05-23T06:05:16;101790.84;;;17.93;100.00
24390;BME280;12510;56.468;-3.004;2023-05-23T06:07:47;101774.31;;;17.09;100.00
24390;BME280;12510;56.468;-3.004;2023-05-23T06:10:13;101783.09;;;17.64;100.00
24390;BME280;12510;56.468;-3.004;2023-05-23T06:12:41;101770.50;;;17.92;100.00
24390;BME280;12510;56.468;-3.004;2023-05-23T06:15:08;101778.53;;;17.74;100.00
24390;BME280;12510;56.468;-3.004;2023-05-23T06:17:36;101778.97;;;18.14;100.00
24390;BME280;12510;56.468;-3.004;2023-05-23T06:20:03;101772.31;;;18.52;100.00
24390;BME280;12510;56.468;-3.004;2023-05-23T06:22:31;101770.72;;;17.99;100.00
24390;BME280;12510;56.468;-3.004;2023-05-23T06:24:58;101773.53;;;17.97;100.00
24390;BME280;12510;56.468;-3.004;2023-05-23T06:27:24;101769.81;;;17.90;100.00
24390;BME280;12510;56.468;-3.004;2023-05-23T06:29:50;101764.81;;;18.48;100.00
24390;BME280;12510;56.468;-3.004;2023-05-23T06:32:17;101764.34;;;18.18;98.85
24390;BME280;12510;56.468;-3.004;2023-05-23T06:34:43;101769.56;;;18.28;96.59
24390;BME280;12510;56.468;-3.004;2023-05-23T06:37:10;101773.09;;;17.57;100.00
24390;BME280;12510;56.468;-3.004;2023-05-23T06:39:36;101771.44;;;18.35;100.00
24390;BME280;12510;56.468;-3.004;2023-05-23T06:42:03;101772.69;;;18.23;97.90
24390;BME280;12510;56.468;-3.004;2023-05-23T06:44:40;101771.09;;;18.38;98.56
24390;BME280;12510;56.468;-3.004;2023-05-23T06:47:06;101768.41;;;18.04;98.88
24390;BME280;12510;56.468;-3.004;2023-05-23T06:49:33;101770.91;;;18.05;100.00
24390;BME280;12510;56.468;-3.004;2023-05-23T06:51:59;101756.13;;;18.97;91.60
24390;BME280;12510;56.468;-3.004;2023-05-23T06:54:26;101745.13;;;19.33;89.56
24390;BME280;12510;56.468;-3.004;2023-05-23T06:56:52;101739.91;;;20.37;83.82
24390;BME280;12510;56.468;-3.004;2023-05-23T06:59:20;101731.53;;;20.00;80.62
24390;BME280;12510;56.468;-3.004;2023-05-23T07:01:46;101729.19;;;21.46;77.59
24390;BME280;12510;56.468;-3.004;2023-05-23T07:04:13;101712.28;;;22.35;70.51
24390;BME280;12510;56.468;-3.004;2023-05-23T07:06:40;101705.41;;;21.05;67.10
24390;BME280;12510;56.468;-3.004;2023-05-23T07:09:07;101710.84;;;21.88;66.25
24390;BME280;12510;56.468;-3.004;2023-05-23T07:11:35;101718.97;;;21.41;72.92
24390;BME280;12510;56.468;-3.004;2023-05-23T07:14:02;101695.94;;;23.38;61.37
24390;BME280;12510;56.468;-3.004;2023-05-23T07:16:41;101697.53;;;23.04;60.30
24390;BME280;12510;56.468;-3.004;2023-05-23T07:19:08;101707.31;;;23.12;60.29
24390;BME280;12510;56.468;-3.004;2023-05-23T07:21:41;101696.56;;;23.69;59.01
24390;BME280;12510;56.468;-3.004;2023-05-23T07:24:07;101687.91;;;24.64;54.43
24390;BME280;12510;56.468;-3.004;2023-05-23T07:26:34;101685.59;;;24.67;54.97
24390;BME280;12510;56.468;-3.004;2023-05-23T07:29:00;101675.66;;;24.61;48.94
24390;BME280;12510;56.468;-3.004;2023-05-23T07:31:27;101678.38;;;25.55;48.95
24390;BME280;12510;56.468;-3.004;2023-05-23T07:33:56;101658.44;;;26.53;45.34
24390;BME280;12510;56.468;-3.004;2023-05-23T07:36:29;101669.88;;;27.31;47.17
24390;BME280;12510;56.468;-3.004;2023-05-23T07:38:59;101656.13;;;26.57;45.22
24390;BME280;12510;56.468;-3.004;2023-05-23T07:41:26;101650.50;;;27.41;43.35
24390;BME280;12510;56.468;-3.004;2023-05-23T07:43:52;101651.84;;;25.38;45.02
24390;BME280;12510;56.468;-3.004;2023-05-23T07:46:19;101672.66;;;24.29;49.06
24390;BME280;12510;56.468;-3.004;2023-05-23T07:48:48;101656.22;;;26.05;45.01
24390;BME280;12510;56.468;-3.004;2023-05-23T07:51:14;101671.38;;;25.99;49.01
24390;BME280;12510;56.468;-3.004;2023-05-23T07:53:46;101651.06;;;26.99;45.82
24390;BME280;12510;56.468;-3.004;2023-05-23T07:56:13;101641.06;;;27.00;42.71
24390;BME280;12510;56.468;-3.004;2023-05-23T07:58:41;101651.50;;;26.39;43.39
24390;BME280;12510;56.468;-3.004;2023-05-23T08:01:08;101650.03;;;26.68;42.52
24390;BME280;12510;56.468;-3.004;2023-05-23T08:04:01;101655.00;;;25.94;42.63
24390;BME280;12510;56.468;-3.004;2023-05-23T08:06:40;101657.00;;;26.83;41.73
24390;BME280;12510;56.468;-3.004;2023-05-23T08:09:18;101651.63;;;27.52;42.44
24390;BME280;12510;56.468;-3.004;2023-05-23T08:11:50;101645.88;;;25.95;40.76
24390;BME280;12510;56.468;-3.004;2023-05-23T08:14:17;101654.28;;;27.89;41.96
24390;BME280;12510;56.468;-3.004;2023-05-23T08:16:53;101642.97;;;27.18;40.65
24390;BME280;12510;56.468;-3.004;2023-05-23T08:19:23;101647.97;;;27.95;42.70
24390;BME280;12510;56.468;-3.004;2023-05-23T08:21:50;101636.72;;;26.99;40.81
24390;BME280;12510;56.468;-3.004;2023-05-23T08:24:21;101636.59;;;27.56;40.83
24390;BME280;12510;56.468;-3.004;2023-05-23T08:26:48;101657.09;;;25.85;44.23
24390;BME280;12510;56.468;-3.004;2023-05-23T08:29:15;101678.28;;;24.34;51.02
24390;BME280;12510;56.468;-3.004;2023-05-23T08:31:42;101659.81;;;26.31;47.92
24390;BME280;12510;56.468;-3.004;2023-05-23T08:34:10;101663.22;;;25.54;47.82
24390;BME280;12510;56.468;-3.004;2023-05-23T08:36:38;101626.69;;;26.49;42.77
24390;BME280;12510;56.468;-3.004;2023-05-23T08:39:07;101654.72;;;23.95;51.96
24390;BME280;12510;56.468;-3.004;2023-05-23T08:41:40;101673.16;;;24.59;52.90
24390;BME280;12510;56.468;-3.004;2023-05-23T08:44:10;101661.59;;;24.66;52.87
24390;BME280;12510;56.468;-3.004;2023-05-23T08:46:45;101641.84;;;25.59;47.67
24390;BME280;12510;56.468;-3.004;2023-05-23T08:49:18;101637.47;;;25.65;47.32
24390;BME280;12510;56.468;-3.004;2023-05-23T08:51:51;101646.88;;;23.93;50.90
24390;BME280;12510;56.468;-3.004;2023-05-23T08:54:21;101637.31;;;25.26;48.54
24390;BME280;12510;56.468;-3.004;2023-05-23T08:56:48;101640.38;;;25.63;49.35
24390;BME280;12510;56.468;-3.004;2023-05-23T08:59:15;101640.88;;;24.73;49.75
24390;BME280;12510;56.468;-3.004;2023-05-23T09:01:42;101632.56;;;25.35;50.53
24390;BME280;12510;56.468;-3.004;2023-05-23T09:04:13;101622.84;;;25.14;47.58
24390;BME280;12510;56.468;-3.004;2023-05-23T09:06:55;101625.06;;;24.43;47.94
24390;BME280;12510;56.468;-3.004;2023-05-23T09:09:23;101598.41;;;27.02;45.01
24390;BME280;12510;56.468;-3.004;2023-05-23T09:11:51;101641.22;;;27.49;53.08
24390;BME280;12510;56.468;-3.004;2023-05-23T09:14:18;101597.16;;;25.76;43.09
24390;BME280;12510;56.468;-3.004;2023-05-23T09:16:46;101611.59;;;24.36;46.92
24390;BME280;12510;56.468;-3.004;2023-05-23T09:19:18;101607.88;;;25.45;45.33
24390;BME280;12510;56.468;-3.004;2023-05-23T09:21:53;101581.31;;;26.57;41.44
24390;BME280;12510;56.468;-3.004;2023-05-23T09:24:35;101611.38;;;23.34;49.86
24390;BME280;12510;56.468;-3.004;2023-05-23T09:27:05;101577.34;;;26.60;42.77
24390;BME280;12510;56.468;-3.004;2023-05-23T09:29:37;101589.03;;;26.29;45.07
24390;BME280;12510;56.468;-3.004;2023-05-23T09:32:11;101585.28;;;25.91;44.17
24390;BME280;12510;56.468;-3.004;2023-05-23T09:34:55;101609.81;;;24.84;50.03
24390;BME280;12510;56.468;-3.004;2023-05-23T09:37:31;101566.72;;;26.40;41.52
24390;BME280;12510;56.468;-3.004;2023-05-23T09:39:59;101583.41;;;25.91;43.92
24390;BME280;12510;56.468;-3.004;2023-05-23T09:42:33;101542.13;;;27.36;37.80
24390;BME280;12510;56.468;-3.004;2023-05-23T09:44:59;101560.59;;;25.29;41.17
24390;BME280;12510;56.468;-3.004;2023-05-23T09:47:26;101577.00;;;26.82;43.01
24390;BME280;12510;56.468;-3.004;2023-05-23T09:49:53;101563.56;;;26.18;41.60
24390;BME280;12510;56.468;-3.004;2023-05-23T09:52:20;101539.00;;;27.39;37.84
24390;BME280;12510;56.468;-3.004;2023-05-23T09:54:47;101543.31;;;26.59;36.78
24390;BME280;12510;56.468;-3.004;2023-05-23T09:57:14;101550.97;;;26.87;37.78
24390;BME280;12510;56.468;-3.004;2023-05-23T09:59:53;101560.19;;;25.84;39.15
24390;BME280;12510;56.468;-3.004;2023-05-23T10:08:11;101525.78;;;27.80;35.50
24390;BME280;12510;56.468;-3.004;2023-05-23T10:13:42;101539.72;;;27.09;36.86
24390;BME280;12510;56.468;-3.004;2023-05-23T10:16:25;101580.66;;;25.53;42.82
24390;BME280;12510;56.468;-3.004;2023-05-23T10:18:56;101554.66;;;24.33;42.20
24390;BME280;12510;56.468;-3.004;2023-05-23T10:21:29;101554.69;;;24.86;41.48
24390;BME280;12510;56.468;-3.004;2023-05-23T10:23:58;101556.31;;;24.94;42.68
24390;BME280;12510;56.468;-3.004;2023-05-23T10:26:26;101555.72;;;24.65;43.08
24390;BME280;12510;56.468;-3.004;2023-05-23T10:28:53;101558.38;;;25.12;43.74
24390;BME280;12510;56.468;-3.004;2023-05-23T10:31:22;101539.81;;;25.88;40.82
24390;BME280;12510;56.468;-3.004;2023-05-23T10:33:57;101547.00;;;26.07;40.23
24390;BME280;12510;56.468;-3.004;2023-05-23T10:36:33;101530.75;;;25.75;37.99
24390;BME280;12510;56.468;-3.004;2023-05-23T10:39:18;101525.56;;;26.19;38.42
24390;BME280;12510;56.468;-3.004;2023-05-23T10:41:59;101566.47;;;27.17;46.58
24390;BME280;12510;56.468;-3.004;2023-05-23T10:44:28;101515.66;;;25.68;38.08
24390;BME280;12510;56.468;-3.004;2023-05-23T10:46:59;101570.84;;;26.10;48.92
24390;BME280;12510;56.468;-3.004;2023-05-23T10:52:12;101528.78;;;24.52;42.77
24390;BME280;12510;56.468;-3.004;2023-05-23T10:57:21;101521.28;;;24.94;44.56
24390;BME280;12510;56.468;-3.004;2023-05-23T10:59:50;101512.31;;;25.20;42.16
24390;BME280;12510;56.468;-3.004;2023-05-23T11:02:18;101518.34;;;25.16;42.24
24390;BME280;12510;56.468;-3.004;2023-05-23T11:04:45;101500.97;;;25.57;39.96
24390;BME280;12510;56.468;-3.004;2023-05-23T11:07:33;101509.09;;;24.51;40.28
24390;BME280;12510;56.468;-3.004;2023-05-23T11:10:08;101510.84;;;25.76;40.06
24390;BME280;12510;56.468;-3.004;2023-05-23T11:12:39;101553.44;;;24.49;46.33
24390;BME280;12510;56.468;-3.004;2023-05-23T11:15:26;101531.66;;;25.04;44.39
24390;BME280;12510;56.468;-3.004;2023-05-23T11:17:55;101513.13;;;25.73;43.56
24390;BME280;12510;56.468;-3.004;2023-05-23T11:20:24;101514.06;;;24.81;44.99
24390;BME280;12510;56.468;-3.004;2023-05-23T11:23:00;101493.34;;;25.54;42.08
24390;BME280;12510;56.468;-3.004;2023-05-23T11:25:42;101482.88;;;25.19;39.71
24390;BME280;12510;56.468;-3.004;2023-05-23T11:28:10;101493.38;;;24.68;40.59
24390;BME280;12510;56.468;-3.004;2023-05-23T11:30:37;101498.75;;;24.41;41.82
24390;BME280;12510;56.468;-3.004;2023-05-23T11:33:11;101496.03;;;24.01;41.16
24390;BME280;12510;56.468;-3.004;2023-05-23T11:35:42;101540.38;;;24.86;50.98
24390;BME280;12510;56.468;-3.004;2023-05-23T11:38:10;101494.03;;;25.42;41.83
24390;BME280;12510;56.468;-3.004;2023-05-23T11:40:41;101497.56;;;23.55;42.14
24390;BME280;12510;56.468;-3.004;2023-05-23T11:43:13;101508.47;;;24.83;44.08
24390;BME280;12510;56.468;-3.004;2023-05-23T11:45:40;101497.72;;;24.63;40.26
24390;BME280;12510;56.468;-3.004;2023-05-23T11:48:11;101508.38;;;25.16;42.74
24390;BME280;12510;56.468;-3.004;2023-05-23T11:50:49;101519.75;;;23.84;45.28
24390;BME280;12510;56.468;-3.004;2023-05-23T11:53:19;101511.84;;;23.69;44.77
24390;BME280;12510;56.468;-3.004;2023-05-23T11:55:52;101496.41;;;23.23;43.28
24390;BME280;12510;56.468;-3.004;2023-05-23T11:58:46;101508.75;;;23.59;43.84
24390;BME280;12510;56.468;-3.004;2023-05-23T12:01:12;101503.47;;;23.37;44.19
24390;BME280;12510;56.468;-3.004;2023-05-23T12:03:49;101477.63;;;24.65;43.39
24390;BME280;12510;56.468;-3.004;2023-05-23T12:06:23;101484.44;;;24.81;45.55
24390;BME280;12510;56.468;-3.004;2023-05-23T12:08:53;101490.88;;;24.60;46.49
24390;BME280;12510;56.468;-3.004;2023-05-23T12:11:19;101487.53;;;23.36;47.21
24390;BME280;12510;56.468;-3.004;2023-05-23T12:13:51;101474.50;;;24.41;44.56
24390;BME280;12510;56.468;-3.004;2023-05-23T12:16:18;101478.09;;;23.12;46.34
24390;BME280;12510;56.468;-3.004;2023-05-23T12:18:46;101491.09;;;23.08;48.70
24390;BME280;12510;56.468;-3.004;2023-05-23T12:21:12;101482.94;;;22.88;48.16
24390;BME280;12510;56.468;-3.004;2023-05-23T12:23:40;101491.00;;;23.78;49.95
24390;BME280;12510;56.468;-3.004;2023-05-23T12:26:07;101477.84;;;24.23;48.81
24390;BME280;12510;56.468;-3.004;2023-05-23T12:28:37;101477.50;;;23.09;49.62
24390;BME280;12510;56.468;-3.004;2023-05-23T12:31:24;101469.69;;;22.86;49.90
24390;BME280;12510;56.468;-3.004;2023-05-23T12:33:52;101487.47;;;23.22;52.27
24390;BME280;12510;56.468;-3.004;2023-05-23T12:36:23;101489.97;;;23.72;50.11
24390;BME280;12510;56.468;-3.004;2023-05-23T12:38:51;101491.91;;;24.05;50.07
24390;BME280;12510;56.468;-3.004;2023-05-23T12:41:18;101494.94;;;23.20;50.72
24390;BME280;12510;56.468;-3.004;2023-05-23T12:43:52;101483.63;;;24.27;49.10
24390;BME280;12510;56.468;-3.004;2023-05-23T12:46:23;101477.63;;;24.72;48.53
24390;BME280;12510;56.468;-3.004;2023-05-23T12:48:50;101476.56;;;24.93;47.00
24390;BME280;12510;56.468;-3.004;2023-05-23T12:51:17;101481.56;;;24.36;47.59
24390;BME280;12510;56.468;-3.004;2023-05-23T12:53:43;101475.72;;;24.86;46.99
24390;BME280;12510;56.468;-3.004;2023-05-23T12:56:10;101492.13;;;24.31;48.17
24390;BME280;12510;56.468;-3.004;2023-05-23T12:58:37;101480.31;;;24.18;47.38
24390;BME280;12510;56.468;-3.004;2023-05-23T13:01:03;101490.88;;;24.73;49.48
24390;BME280;12510;56.468;-3.004;2023-05-23T13:03:30;101473.28;;;24.51;46.11
24390;BME280;12510;56.468;-3.004;2023-05-23T13:05:57;101473.28;;;24.31;46.04
24390;BME280;12510;56.468;-3.004;2023-05-23T13:08:25;101485.28;;;24.08;47.05